Time;durP1;ratioP1;P1;durP2;ratioP2;P2;SDS_P1;SDS_P2;PMS_P1;PMS_P2;Temp;Humidity;BMP_temperature;BMP_pressure;BME280_temperature;BME280_humidity;BME280_pressure;Samples;Min_cycle;Max_cycle;Signal;HPM_P1;HPM_P2
2024/01/11 00:01:57;;;;;;;15.00;2.33;;;;;;;;;;5064035;28;20052;-75
2024/01/11 00:04:29;;;;;;;8.68;1.90;;;;;;;;;;5064148;28;20055;-74
2024/01/11 00:07:00;;;;;;;7.72;2.00;;;;;;;;;;5064153;28;20056;-77
2024/01/11 00:09:30;;;;;;;6.32;1.75;;;;;;;;;;5063515;28;20597;-74
2024/01/11 00:12:00;;;;;;;5.55;1.80;;;;;;;;;;5064022;28;20048;-76
2024/01/11 00:14:31;;;;;;;4.20;1.70;;;;;;;;;;5063849;28;20044;-74
2024/01/11 00:17:01;;;;;;;5.75;1.83;;;;;;;;;;5063718;28;20435;-74
2024/01/11 00:19:32;;;;;;;9.90;2.40;;;;;;;;;;5063437;28;20044;-74
2024/01/11 00:22:02;;;;;;;7.32;2.10;;;;;;;;;;5064068;28;20646;-74
2024/01/11 00:24:33;;;;;;;4.00;1.90;;;;;;;;;;5063400;28;20051;-74
2024/01/11 00:27:08;;;;;;;10.63;2.13;;;;;;;;;;5064233;28;20045;-74
2024/01/11 00:29:38;;;;;;;10.23;1.85;;;;;;;;;;5063275;28;20056;-74
2024/01/11 00:32:08;;;;;;;6.10;2.15;;;;;;;;;;5064132;28;20056;-74
2024/01/11 00:34:39;;;;;;;7.65;2.58;;;;;;;;;;5064061;28;20048;-73
2024/01/11 00:37:09;;;;;;;15.05;2.40;;;;;;;;;;5063245;28;20496;-74
2024/01/11 00:39:40;;;;;;;10.98;2.40;;;;;;;;;;5063179;28;20075;-74
2024/01/11 00:42:10;;;;;;;7.00;2.35;;;;;;;;;;5063149;28;20059;-75
2024/01/11 00:44:41;;;;;;;10.38;2.05;;;;;;;;;;5063347;28;20044;-74
2024/01/11 00:47:13;;;;;;;11.40;2.38;;;;;;;;;;5061742;28;20534;-74
2024/01/11 00:49:43;;;;;;;6.82;1.88;;;;;;;;;;5062268;28;20049;-75
2024/01/11 00:52:13;;;;;;;7.20;2.05;;;;;;;;;;5062708;28;20052;-74
2024/01/11 00:54:44;;;;;;;10.55;2.22;;;;;;;;;;5062997;28;20056;-74
2024/01/11 00:57:15;;;;;;;7.88;1.73;;;;;;;;;;5063550;28;20048;-74
2024/01/11 00:59:49;;;;;;;;;;;;;;;;;;5062976;28;20045;-74
2024/01/11 01:02:20;;;;;;;9.98;2.10;;;;;;;;;;5062476;28;19927;-74
2024/01/11 01:04:51;;;;;;;18.85;2.72;;;;;;;;;;5063315;28;20411;-74
2024/01/11 01:07:22;;;;;;;7.75;2.30;;;;;;;;;;5061704;28;20052;-74
2024/01/11 01:09:53;;;;;;;3.72;1.85;;;;;;;;;;5063406;28;20052;-74
2024/01/11 01:12:24;;;;;;;12.18;2.47;;;;;;;;;;5062721;28;20549;-74
2024/01/11 01:14:58;;;;;;;12.10;2.20;;;;;;;;;;5062511;28;20044;-74
2024/01/11 01:17:30;;;;;;;16.67;2.28;;;;;;;;;;5062311;28;20679;-74
2024/01/11 01:20:00;;;;;;;11.57;2.60;;;;;;;;;;5062365;28;20059;-75
2024/01/11 01:22:30;;;;;;;10.15;2.55;;;;;;;;;;5061791;28;20048;-75
2024/01/11 01:25:01;;;;;;;7.38;1.95;;;;;;;;;;5062471;28;20055;-74
2024/01/11 01:27:37;;;;;;;8.70;1.90;;;;;;;;;;5060945;28;20048;-75
2024/01/11 01:30:09;;;;;;;8.65;2.00;;;;;;;;;;5059678;28;20048;-75
2024/01/11 01:32:40;;;;;;;8.48;2.45;;;;;;;;;;5062358;28;20115;-75
2024/01/11 01:35:11;;;;;;;9.93;1.90;;;;;;;;;;5062597;28;20510;-75
2024/01/11 01:37:42;;;;;;;8.25;2.15;;;;;;;;;;5060927;28;20048;-76
2024/01/11 01:40:13;;;;;;;5.72;2.20;;;;;;;;;;5062765;28;20530;-74
2024/01/11 01:42:45;;;;;;;4.22;2.13;;;;;;;;;;5062233;28;20526;-74
2024/01/11 01:45:17;;;;;;;11.77;2.22;;;;;;;;;;5061705;28;20040;-74
2024/01/11 01:47:48;;;;;;;6.13;2.17;;;;;;;;;;5060235;28;20048;-74
2024/01/11 01:50:20;;;;;;;8.40;2.15;;;;;;;;;;5060392;28;20044;-75
2024/01/11 01:52:51;;;;;;;8.57;2.10;;;;;;;;;;5061314;28;20524;-74
2024/01/11 01:55:23;;;;;;;4.10;1.80;;;;;;;;;;5061422;28;20051;-74
2024/01/11 01:57:55;;;;;;;9.02;1.98;;;;;;;;;;5061261;28;20594;-74
2024/01/11 02:00:26;;;;;;;10.07;2.35;;;;;;;;;;5061070;28;20674;-74
2024/01/11 02:02:58;;;;;;;7.32;2.45;;;;;;;;;;5061653;28;20052;-74
2024/01/11 02:05:29;;;;;;;9.80;2.55;;;;;;;;;;5061104;28;20044;-74
2024/01/11 02:08:05;;;;;;;4.22;2.30;;;;;;;;;;5061120;28;20049;-75
2024/01/11 02:10:38;;;;;;;6.30;2.55;;;;;;;;;;5061077;28;21155;-74
2024/01/11 02:13:09;;;;;;;5.07;2.28;;;;;;;;;;5060433;28;20515;-74
2024/01/11 02:15:40;;;;;;;9.45;2.40;;;;;;;;;;5061039;28;20055;-74
2024/01/11 02:18:11;;;;;;;8.30;2.30;;;;;;;;;;5059556;28;20088;-74
2024/01/11 02:20:42;;;;;;;4.20;2.00;;;;;;;;;;5061070;28;20060;-74
2024/01/11 02:23:17;;;;;;;6.85;2.00;;;;;;;;;;5060679;28;20049;-74
2024/01/11 02:25:49;;;;;;;13.52;2.10;;;;;;;;;;5060880;28;20041;-80
2024/01/11 02:28:20;;;;;;;4.80;2.00;;;;;;;;;;5061447;28;20048;-74
2024/01/11 02:30:50;;;;;;;5.28;2.00;;;;;;;;;;5061919;28;20056;-74
2024/01/11 02:33:21;;;;;;;8.20;2.20;;;;;;;;;;5060889;28;20446;-75
2024/01/11 02:35:52;;;;;;;8.55;2.65;;;;;;;;;;5060304;28;20045;-74
2024/01/11 02:38:23;;;;;;;7.32;2.22;;;;;;;;;;5060788;28;20503;-75
2024/01/11 02:40:54;;;;;;;6.43;2.08;;;;;;;;;;5060465;28;20049;-75
2024/01/11 02:43:25;;;;;;;8.10;2.25;;;;;;;;;;4955018;28;3041551;-74
2024/01/11 02:45:58;;;;;;;2.33;1.92;;;;;;;;;;5062026;28;20049;-75
2024/01/11 02:48:32;;;;;;;5.25;1.85;;;;;;;;;;5061091;28;20405;-74
2024/01/11 02:51:03;;;;;;;5.18;2.10;;;;;;;;;;5061641;28;20049;-74
2024/01/11 02:53:34;;;;;;;8.00;2.15;;;;;;;;;;5060021;28;20060;-75
2024/01/11 02:56:05;;;;;;;3.55;2.13;;;;;;;;;;5061911;28;20053;-74
2024/01/11 02:58:36;;;;;;;9.40;2.45;;;;;;;;;;5061803;28;20857;-74
2024/01/11 03:01:07;;;;;;;3.55;2.20;;;;;;;;;;5061930;28;20056;-74
2024/01/11 03:03:37;;;;;;;4.38;2.30;;;;;;;;;;5061934;28;20052;-75
2024/01/11 03:06:08;;;;;;;4.63;2.50;;;;;;;;;;5061799;28;20047;-75
2024/01/11 03:08:39;;;;;;;8.40;2.30;;;;;;;;;;5061794;28;20055;-75
2024/01/11 03:11:10;;;;;;;6.32;2.42;;;;;;;;;;5061460;28;20539;-74
2024/01/11 03:13:40;;;;;;;5.53;2.03;;;;;;;;;;5061217;28;20044;-74
2024/01/11 03:16:10;;;;;;;7.82;2.10;;;;;;;;;;5061467;28;20049;-75
2024/01/11 03:18:42;;;;;;;5.55;2.10;;;;;;;;;;5061163;28;20049;-75
2024/01/11 03:21:12;;;;;;;4.35;2.28;;;;;;;;;;5061092;28;20056;-74
2024/01/11 03:23:42;;;;;;;8.85;2.88;;;;;;;;;;5060849;28;20499;-74
2024/01/11 03:26:16;;;;;;;5.30;2.30;;;;;;;;;;5065105;28;20059;-74
2024/01/11 03:28:48;;;;;;;12.82;2.38;;;;;;;;;;5064970;28;20107;-74
2024/01/11 03:31:18;;;;;;;10.35;2.83;;;;;;;;;;5064605;28;20063;-75
2024/01/11 03:33:48;;;;;;;7.93;2.50;;;;;;;;;;5063557;28;20052;-74
2024/01/11 03:36:23;;;;;;;9.25;2.42;;;;;;;;;;5064365;28;20043;-74
2024/01/11 03:38:54;;;;;;;7.70;2.35;;;;;;;;;;5065220;28;20041;-74
2024/01/11 03:41:24;;;;;;;8.68;2.50;;;;;;;;;;5063081;28;20075;-74
2024/01/11 03:43:55;;;;;;;4.15;2.13;;;;;;;;;;5064859;28;20547;-74
2024/01/11 03:46:26;;;;;;;7.78;2.13;;;;;;;;;;5064799;28;20052;-75
2024/01/11 03:48:59;;;;;;;10.90;2.28;;;;;;;;;;5064196;28;20423;-75
2024/01/11 03:51:30;;;;;;;7.32;2.08;;;;;;;;;;5063882;28;20400;-75
2024/01/11 03:54:00;;;;;;;6.55;2.53;;;;;;;;;;5063415;28;20052;-75
2024/01/11 03:56:31;;;;;;;8.90;2.60;;;;;;;;;;5064227;28;20048;-74
2024/01/11 03:59:03;;;;;;;11.30;2.40;;;;;;;;;;5064173;28;20503;-75
2024/01/11 04:01:34;;;;;;;5.75;2.53;;;;;;;;;;5064046;28;20059;-74
2024/01/11 04:04:05;;;;;;;6.22;2.25;;;;;;;;;;5064289;28;20053;-74
2024/01/11 04:06:36;;;;;;;6.70;2.42;;;;;;;;;;5064707;28;20037;-74
2024/01/11 04:09:07;;;;;;;8.27;2.80;;;;;;;;;;5064054;28;20040;-74
2024/01/11 04:11:37;;;;;;;5.90;2.40;;;;;;;;;;5064026;28;20118;-74
2024/01/11 04:14:07;;;;;;;6.63;2.38;;;;;;;;;;5064140;28;20056;-74
2024/01/11 04:16:42;;;;;;;4.03;2.55;;;;;;;;;;5063279;28;20053;-74
2024/01/11 04:19:14;;;;;;;9.63;2.33;;;;;;;;;;5063397;28;20602;-74
2024/01/11 04:21:47;;;;;;;7.63;2.92;;;;;;;;;;5063957;28;20404;-74
2024/01/11 04:24:17;;;;;;;8.50;2.28;;;;;;;;;;5063661;28;20040;-74
2024/01/11 04:26:48;;;;;;;4.85;2.55;;;;;;;;;;5064216;28;20055;-74
2024/01/11 04:29:20;;;;;;;4.93;2.33;;;;;;;;;;5063824;28;20048;-74
2024/01/11 04:31:51;;;;;;;11.38;2.63;;;;;;;;;;5061871;28;20053;-75
2024/01/11 04:34:21;;;;;;;6.05;2.50;;;;;;;;;;5064135;28;20399;-75
2024/01/11 04:36:53;;;;;;;10.02;3.00;;;;;;;;;;5062690;28;20049;-74
2024/01/11 04:39:24;;;;;;;5.05;2.30;;;;;;;;;;5063483;28;20051;-74
2024/01/11 04:41:55;;;;;;;4.68;2.45;;;;;;;;;;5063001;28;20068;-74
2024/01/11 04:44:26;;;;;;;5.35;2.30;;;;;;;;;;5063758;28;20067;-75
2024/01/11 04:46:56;;;;;;;6.88;2.70;;;;;;;;;;5063674;28;20408;-74
2024/01/11 04:49:28;;;;;;;4.35;2.20;;;;;;;;;;5062705;28;20393;-74
2024/01/11 04:51:59;;;;;;;7.18;2.20;;;;;;;;;;5062859;28;20059;-75
2024/01/11 04:54:29;;;;;;;6.03;2.30;;;;;;;;;;5062705;28;20041;-75
2024/01/11 04:56:59;;;;;;;6.45;2.53;;;;;;;;;;5062119;28;20059;-74
2024/01/11 04:59:30;;;;;;;6.72;2.42;;;;;;;;;;5063097;28;20040;-75
2024/01/11 05:02:01;;;;;;;7.25;2.33;;;;;;;;;;5063966;28;20053;-74
2024/01/11 05:04:31;;;;;;;4.88;2.22;;;;;;;;;;5063537;28;20036;-75
2024/01/11 05:07:02;;;;;;;8.07;2.45;;;;;;;;;;5062846;28;20163;-74
2024/01/11 05:09:34;;;;;;;8.45;2.60;;;;;;;;;;5062690;28;20040;-74
2024/01/11 05:12:05;;;;;;;10.32;2.45;;;;;;;;;;5062409;28;20044;-75
2024/01/11 05:14:36;;;;;;;4.95;2.40;;;;;;;;;;5062566;28;20060;-74
2024/01/11 05:17:06;;;;;;;10.60;2.60;;;;;;;;;;5062954;28;20059;-75
2024/01/11 05:19:37;;;;;;;5.95;1.90;;;;;;;;;;5062837;28;20511;-75
2024/01/11 05:22:09;;;;;;;4.50;2.15;;;;;;;;;;5062756;28;20044;-75
2024/01/11 05:24:39;;;;;;;7.13;2.25;;;;;;;;;;5062465;28;20385;-74
2024/01/11 05:27:09;;;;;;;6.05;2.50;;;;;;;;;;5062526;28;20051;-74
2024/01/11 05:29:39;;;;;;;5.75;2.90;;;;;;;;;;5063265;28;20040;-75
2024/01/11 05:32:10;;;;;;;6.45;2.90;;;;;;;;;;5063394;28;20033;-75
2024/01/11 05:34:43;;;;;;;6.35;2.50;;;;;;;;;;5062832;28;20435;-74
2024/01/11 05:37:13;;;;;;;7.75;2.50;;;;;;;;;;5062902;28;21017;-73
2024/01/11 05:39:43;;;;;;;7.55;3.10;;;;;;;;;;5062380;28;20404;-73
2024/01/11 05:42:15;;;;;;;6.93;2.55;;;;;;;;;;5061798;28;20614;-73
2024/01/11 05:44:45;;;;;;;6.53;2.60;;;;;;;;;;5062251;28;20519;-73
2024/01/11 05:47:15;;;;;;;8.18;2.90;;;;;;;;;;5061887;28;20044;-74
2024/01/11 05:49:47;;;;;;;9.05;3.13;;;;;;;;;;5062039;28;20048;-73
2024/01/11 05:52:19;;;;;;;6.35;2.50;;;;;;;;;;5061947;28;20052;-73
2024/01/11 05:54:50;;;;;;;6.68;2.75;;;;;;;;;;5062165;28;20419;-73
2024/01/11 05:57:20;;;;;;;7.88;2.78;;;;;;;;;;5060421;28;20052;-73
2024/01/11 05:59:51;;;;;;;4.28;2.40;;;;;;;;;;5062071;28;20044;-73
2024/01/11 06:02:22;;;;;;;6.40;2.67;;;;;;;;;;5062680;28;20048;-73
2024/01/11 06:04:54;;;;;;;5.40;2.90;;;;;;;;;;5062758;28;20044;-73
2024/01/11 06:07:26;;;;;;;7.18;2.70;;;;;;;;;;5062361;28;20044;-73
2024/01/11 06:09:57;;;;;;;8.35;2.50;;;;;;;;;;5062250;28;20049;-73
2024/01/11 06:12:27;;;;;;;5.32;2.60;;;;;;;;;;5062297;28;20045;-73
2024/01/11 06:14:58;;;;;;;6.60;2.83;;;;;;;;;;5062372;28;20511;-73
2024/01/11 06:17:29;;;;;;;5.05;2.70;;;;;;;;;;5062003;28;20049;-73
2024/01/11 06:20:00;;;;;;;13.07;2.60;;;;;;;;;;5061886;28;20416;-73
2024/01/11 06:22:31;;;;;;;3.55;2.33;;;;;;;;;;5062186;28;20793;-73
2024/01/11 06:25:01;;;;;;;4.15;2.28;;;;;;;;;;5061873;28;20050;-73
2024/01/11 06:27:31;;;;;;;4.63;2.45;;;;;;;;;;5062015;28;20045;-73
2024/01/11 06:30:04;;;;;;;10.95;3.28;;;;;;;;;;5062169;28;20052;-73
2024/01/11 06:32:34;;;;;;;11.02;2.92;;;;;;;;;;5061517;28;20045;-74
2024/01/11 06:35:05;;;;;;;7.70;2.85;;;;;;;;;;5061826;28;20048;-74
2024/01/11 06:37:35;;;;;;;6.90;2.72;;;;;;;;;;5062156;28;20044;-73
2024/01/11 06:40:08;;;;;;;5.75;2.90;;;;;;;;;;5062208;28;20495;-74
2024/01/11 06:42:40;;;;;;;6.47;2.78;;;;;;;;;;5061679;28;20415;-73
2024/01/11 06:45:11;;;;;;;7.68;2.65;;;;;;;;;;5061873;28;20048;-73
2024/01/11 06:47:40;;;;;;;7.70;2.50;;;;;;;;;;5061665;28;20060;-73
2024/01/11 06:50:13;;;;;;;5.82;2.40;;;;;;;;;;5062061;28;20636;-73
2024/01/11 06:52:44;;;;;;;3.95;2.30;;;;;;;;;;5062136;28;20059;-73
2024/01/11 06:55:14;;;;;;;4.00;2.40;;;;;;;;;;5061621;28;20052;-74
2024/01/11 06:57:50;;;;;;;4.47;2.78;;;;;;;;;;5062329;28;20053;-73
2024/01/11 07:00:21;;;;;;;5.10;2.78;;;;;;;;;;5064039;28;20059;-73
2024/01/11 07:02:53;;;;;;;6.15;2.75;;;;;;;;;;5065080;28;20044;-73
2024/01/11 07:05:23;;;;;;;6.00;2.72;;;;;;;;;;5065402;28;20051;-73
2024/01/11 07:07:53;;;;;;;6.07;2.67;;;;;;;;;;5064979;28;20606;-73
2024/01/11 07:10:24;;;;;;;4.90;2.40;;;;;;;;;;5064015;28;20057;-73
2024/01/11 07:12:55;;;;;;;6.65;3.05;;;;;;;;;;5065304;28;20044;-72
2024/01/11 07:15:27;;;;;;;5.22;2.97;;;;;;;;;;5064783;28;20045;-73
2024/01/11 07:17:58;;;;;;;5.15;2.47;;;;;;;;;;5065074;28;20052;-73
2024/01/11 07:20:28;;;;;;;5.95;2.60;;;;;;;;;;5065352;28;20044;-73
2024/01/11 07:22:59;;;;;;;5.25;2.63;;;;;;;;;;5064677;28;20079;-73
2024/01/11 07:25:30;;;;;;;7.93;2.80;;;;;;;;;;5064532;28;20428;-73
2024/01/11 07:28:02;;;;;;;6.13;3.00;;;;;;;;;;5065683;28;20411;-73
2024/01/11 07:30:32;;;;;;;4.65;2.47;;;;;;;;;;5065182;28;20252;-73
2024/01/11 07:33:04;;;;;;;6.50;2.80;;;;;;;;;;5065498;28;20511;-73
2024/01/11 07:35:38;;;;;;;4.43;2.63;;;;;;;;;;5064825;28;20720;-73
2024/01/11 07:38:09;;;;;;;5.32;2.53;;;;;;;;;;5064125;28;20407;-73
2024/01/11 07:40:39;;;;;;;7.63;2.85;;;;;;;;;;5064315;28;20049;-73
2024/01/11 07:43:14;;;;;;;5.47;2.67;;;;;;;;;;5064054;28;20423;-73
2024/01/11 07:45:48;;;;;;;3.92;2.55;;;;;;;;;;5064493;28;20036;-73
2024/01/11 07:48:19;;;;;;;5.13;2.75;;;;;;;;;;5064656;28;20075;-73
2024/01/11 07:50:49;;;;;;;6.93;2.95;;;;;;;;;;5064522;28;20045;-73
2024/01/11 07:53:20;;;;;;;7.35;2.97;;;;;;;;;;5064003;28;20439;-73
2024/01/11 07:55:51;;;;;;;4.85;2.90;;;;;;;;;;5064233;28;20041;-73
2024/01/11 07:58:21;;;;;;;9.02;3.30;;;;;;;;;;5064711;28;20041;-73
2024/01/11 08:00:52;;;;;;;5.53;3.10;;;;;;;;;;5062696;28;20407;-73
2024/01/11 08:03:22;;;;;;;8.77;3.00;;;;;;;;;;5065117;28;20040;-73
2024/01/11 08:05:53;;;;;;;5.25;2.72;;;;;;;;;;5064763;28;20045;-73
2024/01/11 08:08:24;;;;;;;7.95;3.20;;;;;;;;;;5062963;28;20512;-73
2024/01/11 08:10:54;;;;;;;9.18;3.30;;;;;;;;;;5064286;28;20043;-74
2024/01/11 08:13:26;;;;;;;9.13;2.97;;;;;;;;;;5063911;28;20049;-74
2024/01/11 08:15:57;;;;;;;7.95;3.22;;;;;;;;;;5064040;28;20048;-73
2024/01/11 08:18:28;;;;;;;7.25;3.30;;;;;;;;;;5063402;28;20045;-73
2024/01/11 08:20:57;;;;;;;4.75;3.15;;;;;;;;;;5064322;28;20052;-74
2024/01/11 08:23:28;;;;;;;8.13;3.13;;;;;;;;;;5063954;28;20435;-74
2024/01/11 08:25:59;;;;;;;10.73;2.80;;;;;;;;;;5063656;28;20072;-74
2024/01/11 08:28:30;;;;;;;11.98;3.17;;;;;;;;;;5064264;28;20044;-72
2024/01/11 08:31:00;;;;;;;7.47;2.80;;;;;;;;;;5063782;28;20071;-72
2024/01/11 08:33:31;;;;;;;7.93;3.33;;;;;;;;;;5061999;28;20056;-72
2024/01/11 08:36:03;;;;;;;9.27;3.78;;;;;;;;;;5063649;28;20041;-72
2024/01/11 08:38:35;;;;;;;4.70;3.03;;;;;;;;;;5063513;28;20541;-72
2024/01/11 08:41:06;;;;;;;9.98;3.35;;;;;;;;;;5063421;28;20048;-72
2024/01/11 08:43:36;;;;;;;6.57;3.13;;;;;;;;;;5062638;28;20060;-72
2024/01/11 08:46:07;;;;;;;11.02;3.30;;;;;;;;;;5063747;28;20056;-72
2024/01/11 08:48:38;;;;;;;5.57;3.35;;;;;;;;;;5062972;28;20055;-72
2024/01/11 08:51:09;;;;;;;8.95;3.17;;;;;;;;;;5063799;28;21038;-73
2024/01/11 08:53:40;;;;;;;5.55;3.33;;;;;;;;;;5064628;28;20067;-72
2024/01/11 08:56:10;;;;;;;6.35;3.58;;;;;;;;;;5064000;28;20049;-72
2024/01/11 08:58:41;;;;;;;13.68;3.60;;;;;;;;;;5062982;28;20044;-72
2024/01/11 09:01:13;;;;;;;6.72;3.50;;;;;;;;;;5062551;28;20051;-74
2024/01/11 09:03:43;;;;;;;5.97;3.40;;;;;;;;;;5063035;28;20669;-73
2024/01/11 09:06:15;;;;;;;7.15;3.90;;;;;;;;;;5063007;28;20496;-73
2024/01/11 09:08:45;;;;;;;8.40;3.83;;;;;;;;;;5061343;28;20423;-73
2024/01/11 09:11:19;;;;;;;17.73;4.25;;;;;;;;;;5062959;28;20089;-73
2024/01/11 09:13:51;;;;;;;7.93;3.58;;;;;;;;;;5062602;28;20059;-73
2024/01/11 09:16:21;;;;;;;10.57;3.72;;;;;;;;;;5062650;28;20533;-73
2024/01/11 09:18:51;;;;;;;9.80;4.03;;;;;;;;;;5062995;28;20468;-75
2024/01/11 09:21:21;;;;;;;16.88;3.90;;;;;;;;;;5062969;28;20040;-73
2024/01/11 09:23:52;;;;;;;9.52;3.72;;;;;;;;;;5062331;28;20413;-73
2024/01/11 09:26:22;;;;;;;9.68;3.55;;;;;;;;;;5063034;28;20040;-73
2024/01/11 09:28:52;;;;;;;13.25;3.97;;;;;;;;;;5063195;28;20098;-73
2024/01/11 09:31:23;;;;;;;16.30;4.45;;;;;;;;;;5062725;28;20059;-73
2024/01/11 09:33:53;;;;;;;9.13;4.07;;;;;;;;;;5062144;28;20049;-73
2024/01/11 09:36:24;;;;;;;11.38;4.30;;;;;;;;;;5062353;28;20058;-73
2024/01/11 09:38:55;;;;;;;14.60;4.45;;;;;;;;;;5062542;28;20056;-73
2024/01/11 09:41:27;;;;;;;8.07;3.35;;;;;;;;;;5062699;28;20667;-73
2024/01/11 09:44:03;;;;;;;7.28;3.47;;;;;;;;;;5062752;28;20059;-73
2024/01/11 09:46:36;;;;;;;8.30;4.13;;;;;;;;;;5062559;28;20059;-73
2024/01/11 09:49:08;;;;;;;8.10;3.35;;;;;;;;;;5062043;28;20072;-73
2024/01/11 09:51:43;;;;;;;14.38;4.60;;;;;;;;;;5061809;28;20053;-73
2024/01/11 09:54:15;;;;;;;10.25;3.85;;;;;;;;;;5062211;28;20063;-74
2024/01/11 09:56:47;;;;;;;10.05;4.80;;;;;;;;;;5062159;28;20041;-73
2024/01/11 09:59:24;;;;;;;8.70;4.30;;;;;;;;;;5062445;28;20071;-73
2024/01/11 10:01:55;;;;;;;14.95;4.32;;;;;;;;;;5062899;28;20044;-73
2024/01/11 10:04:25;;;;;;;10.05;4.28;;;;;;;;;;5061954;28;20052;-73
2024/01/11 10:06:58;;;;;;;11.18;3.63;;;;;;;;;;5062227;28;20496;-75
2024/01/11 10:09:29;;;;;;;12.18;4.10;;;;;;;;;;5060737;28;20530;-73
2024/01/11 10:12:00;;;;;;;15.90;4.22;;;;;;;;;;5061645;28;20803;-73
2024/01/11 10:14:31;;;;;;;11.32;4.10;;;;;;;;;;5061884;28;20067;-74
2024/01/11 10:17:05;;;;;;;17.15;4.60;;;;;;;;;;5062019;28;20048;-74
2024/01/11 10:19:35;;;;;;;12.30;4.03;;;;;;;;;;5061579;28;20079;-73
2024/01/11 10:22:06;;;;;;;13.40;4.72;;;;;;;;;;5061550;28;20052;-74
2024/01/11 10:24:36;;;;;;;13.20;3.90;;;;;;;;;;5060622;28;20530;-74
2024/01/11 10:27:09;;;;;;;6.90;3.47;;;;;;;;;;5060649;28;20048;-73
2024/01/11 10:29:40;;;;;;;7.57;4.32;;;;;;;;;;5061771;28;20048;-76
2024/01/11 10:32:11;;;;;;;11.05;4.28;;;;;;;;;;5060689;28;20068;-73
2024/01/11 10:34:41;;;;;;;11.88;4.03;;;;;;;;;;5063536;28;20053;-74
2024/01/11 10:37:12;;;;;;;9.70;4.28;;;;;;;;;;5065551;28;20048;-74
2024/01/11 10:39:43;;;;;;;9.60;4.00;;;;;;;;;;5065546;28;20405;-74
2024/01/11 10:42:16;;;;;;;14.77;4.10;;;;;;;;;;5066263;28;20068;-73
2024/01/11 10:44:48;;;;;;;10.23;3.97;;;;;;;;;;5066447;28;20060;-73
2024/01/11 10:47:22;;;;;;;8.32;3.53;;;;;;;;;;5065779;28;20044;-74
2024/01/11 10:49:54;;;;;;;11.27;3.80;;;;;;;;;;5065824;28;20411;-73
2024/01/11 10:52:33;;;;;;;6.65;3.63;;;;;;;;;;5065602;28;20043;-75
2024/01/11 10:55:05;;;;;;;11.30;4.13;;;;;;;;;;5066107;28;20510;-74
2024/01/11 10:57:36;;;;;;;11.10;3.75;;;;;;;;;;5065535;28;20048;-74
2024/01/11 11:00:11;;;;;;;8.00;3.63;;;;;;;;;;5063868;28;20056;-73
2024/01/11 11:02:43;;;;;;;8.45;3.60;;;;;;;;;;5065368;28;20360;-72
2024/01/11 11:05:15;;;;;;;8.73;3.08;;;;;;;;;;5065280;28;20052;-73
2024/01/11 11:07:49;;;;;;;10.77;3.75;;;;;;;;;;5065945;28;20048;-72
2024/01/11 11:10:21;;;;;;;8.98;3.50;;;;;;;;;;5063298;28;20052;-73
2024/01/11 11:12:59;;;;;;;9.00;3.67;;;;;;;;;;5064351;28;20055;-73
2024/01/11 11:15:30;;;;;;;9.95;3.08;;;;;;;;;;5065473;28;20045;-72
2024/01/11 11:18:02;;;;;;;6.90;3.53;;;;;;;;;;5065714;28;20044;-74
2024/01/11 11:20:33;;;;;;;8.50;3.00;;;;;;;;;;5065527;28;20055;-76
2024/01/11 11:23:07;;;;;;;7.78;3.42;;;;;;;;;;5065417;28;20396;-74
2024/01/11 11:25:39;;;;;;;9.30;3.25;;;;;;;;;;5064705;28;20055;-75
2024/01/11 11:28:12;;;;;;;9.70;3.30;;;;;;;;;;5064971;28;20055;-74
2024/01/11 11:30:45;;;;;;;7.43;3.58;;;;;;;;;;5064805;28;20044;-74
2024/01/11 11:33:24;;;;;;;8.77;3.40;;;;;;;;;;5063679;28;20048;-74
2024/01/11 11:35:58;;;;;;;11.23;3.13;;;;;;;;;;5063478;28;20385;-72
2024/01/11 11:38:31;;;;;;;6.20;3.25;;;;;;;;;;5063040;28;20717;-74
2024/01/11 11:41:02;;;;;;;9.00;3.50;;;;;;;;;;5063040;28;20371;-74
2024/01/11 11:43:34;;;;;;;7.88;3.17;;;;;;;;;;5064225;28;20060;-74
2024/01/11 11:46:07;;;;;;;13.10;3.42;;;;;;;;;;5063975;28;20055;-75
2024/01/11 11:48:41;;;;;;;8.27;3.10;;;;;;;;;;5064494;28;20047;-74
2024/01/11 11:51:15;;;;;;;10.15;3.25;;;;;;;;;;5065294;28;21108;-72
2024/01/11 11:53:50;;;;;;;12.02;3.70;;;;;;;;;;5064966;28;20056;-76
2024/01/11 11:56:22;;;;;;;10.88;3.28;;;;;;;;;;5064392;28;20542;-76
2024/01/11 11:58:54;;;;;;;5.15;2.88;;;;;;;;;;5064652;28;20866;-74
2024/01/11 12:01:26;;;;;;;6.30;3.08;;;;;;;;;;5064163;28;20045;-75
2024/01/11 12:03:57;;;;;;;9.02;3.20;;;;;;;;;;5064436;28;20053;-74
2024/01/11 12:06:29;;;;;;;11.18;3.45;;;;;;;;;;5064163;28;20052;-75
2024/01/11 12:08:59;;;;;;;10.45;3.38;;;;;;;;;;5064365;28;20668;-75
2024/01/11 12:11:32;;;;;;;7.22;3.15;;;;;;;;;;5064308;28;20049;-73
2024/01/11 12:14:03;;;;;;;7.57;2.97;;;;;;;;;;5063730;28;20048;-75
2024/01/11 12:16:34;;;;;;;5.80;2.85;;;;;;;;;;5063467;28;20048;-75
2024/01/11 12:19:06;;;;;;;5.78;2.90;;;;;;;;;;5064035;28;20036;-75
2024/01/11 12:21:38;;;;;;;5.07;2.88;;;;;;;;;;5064458;28;20055;-74
2024/01/11 12:24:10;;;;;;;7.32;2.80;;;;;;;;;;5063115;28;20048;-74
2024/01/11 12:26:41;;;;;;;5.68;2.83;;;;;;;;;;5063880;28;20052;-74
2024/01/11 12:29:11;;;;;;;6.85;3.05;;;;;;;;;;5064846;28;20044;-77
2024/01/11 12:31:42;;;;;;;8.95;3.33;;;;;;;;;;5063598;28;20071;-73
2024/01/11 12:34:14;;;;;;;5.03;2.53;;;;;;;;;;5063840;28;20056;-75
2024/01/11 12:36:45;;;;;;;13.30;3.00;;;;;;;;;;5064391;28;20059;-77
2024/01/11 12:39:17;;;;;;;6.65;2.70;;;;;;;;;;5062466;28;20049;-76
2024/01/11 12:41:47;;;;;;;4.72;2.88;;;;;;;;;;5064074;28;20048;-74
2024/01/11 12:44:21;;;;;;;8.32;2.70;;;;;;;;;;5063878;28;20063;-74
2024/01/11 12:46:52;;;;;;;4.05;1.90;;;;;;;;;;5063791;28;20054;-72
2024/01/11 12:49:24;;;;;;;5.47;2.17;;;;;;;;;;5063363;28;20040;-73
2024/01/11 12:51:55;;;;;;;4.60;2.05;;;;;;;;;;5063395;28;20495;-75
2024/01/11 12:54:27;;;;;;;5.35;1.88;;;;;;;;;;5063597;28;20411;-75
2024/01/11 12:56:57;;;;;;;3.90;1.60;;;;;;;;;;5062578;28;20052;-74
2024/01/11 12:59:28;;;;;;;3.90;1.70;;;;;;;;;;5063478;28;20045;-75
2024/01/11 13:02:00;;;;;;;3.78;1.70;;;;;;;;;;5062427;28;20427;-73
2024/01/11 13:04:30;;;;;;;7.53;1.70;;;;;;;;;;5062020;28;20385;-81
2024/01/11 13:07:01;;;;;;;5.97;1.17;;;;;;;;;;5062920;28;20385;-80
2024/01/11 13:09:31;;;;;;;4.07;0.80;;;;;;;;;;5063658;28;20514;-80
2024/01/11 13:12:05;;;;;;;2.45;0.90;;;;;;;;;;5063050;28;20052;-79
2024/01/11 13:14:35;;;;;;;3.15;0.88;;;;;;;;;;5062874;28;20055;-78
2024/01/11 13:17:07;;;;;;;6.43;1.10;;;;;;;;;;5063043;28;20078;-77
2024/01/11 13:19:39;;;;;;;2.83;0.68;;;;;;;;;;5062793;28;20412;-78
2024/01/11 13:22:10;;;;;;;1.80;0.70;;;;;;;;;;5062402;28;20396;-76
2024/01/11 13:24:40;;;;;;;5.80;0.73;;;;;;;;;;5062632;28;20537;-76
2024/01/11 13:27:11;;;;;;;0.90;0.70;;;;;;;;;;5062265;28;20056;-76
2024/01/11 13:29:42;;;;;;;7.25;0.70;;;;;;;;;;5063165;28;20500;-77
2024/01/11 13:32:14;;;;;;;2.83;0.65;;;;;;;;;;5061877;28;20053;-79
2024/01/11 13:34:45;;;;;;;4.80;0.80;;;;;;;;;;5062702;28;20500;-76
2024/01/11 13:37:16;;;;;;;5.72;0.80;;;;;;;;;;5062186;28;20047;-77
2024/01/11 13:39:46;;;;;;;1.48;0.80;;;;;;;;;;5062522;28;20040;-79
2024/01/11 13:42:17;;;;;;;5.55;0.70;;;;;;;;;;5059277;28;20048;-79
2024/01/11 13:44:49;;;;;;;1.65;0.60;;;;;;;;;;5060345;28;20051;-78
2024/01/11 13:47:20;;;;;;;3.38;0.73;;;;;;;;;;5059833;28;20404;-80
2024/01/11 13:49:50;;;;;;;0.63;0.50;;;;;;;;;;5059417;28;21044;-83
2024/01/11 13:52:21;;;;;;;2.65;0.50;;;;;;;;;;5039694;28;20048;-77
2024/01/11 13:54:53;;;;;;;1.35;0.60;;;;;;;;;;5039752;28;20037;-78
2024/01/11 13:57:25;;;;;;;0.45;0.45;;;;;;;;;;5038230;28;20405;-78
2024/01/11 13:59:57;;;;;;;0.88;0.50;;;;;;;;;;5039921;28;20045;-79
2024/01/11 14:02:27;;;;;;;5.80;0.80;;;;;;;;;;5039314;28;20063;-78
2024/01/11 14:04:59;;;;;;;3.28;0.70;;;;;;;;;;5041139;28;20049;-76
2024/01/11 14:07:31;;;;;;;2.28;0.60;;;;;;;;;;5039749;28;20059;-76
2024/01/11 14:10:02;;;;;;;0.50;0.50;;;;;;;;;;5039801;28;20515;-76
2024/01/11 14:12:35;;;;;;;0.60;0.60;;;;;;;;;;5039585;28;20135;-77
2024/01/11 14:15:11;;;;;;;4.20;0.70;;;;;;;;;;5039368;28;20508;-76
2024/01/11 14:17:43;;;;;;;0.95;0.55;;;;;;;;;;5039783;28;20119;-75
2024/01/11 14:20:14;;;;;;;2.20;0.70;;;;;;;;;;5039976;28;20053;-77
2024/01/11 14:22:50;;;;;;;4.32;0.70;;;;;;;;;;5039758;28;20044;-77
2024/01/11 14:25:26;;;;;;;1.25;0.65;;;;;;;;;;5040634;28;20052;-76
2024/01/11 14:27:58;;;;;;;3.38;0.65;;;;;;;;;;5041084;28;20512;-78
2024/01/11 14:30:29;;;;;;;1.65;0.50;;;;;;;;;;5039613;28;20496;-79
2024/01/11 14:33:01;;;;;;;1.33;0.60;;;;;;;;;;5039386;28;20052;-76
2024/01/11 14:35:33;;;;;;;1.00;0.60;;;;;;;;;;5039556;28;20045;-79
2024/01/11 14:38:04;;;;;;;0.93;0.40;;;;;;;;;;5040573;28;20046;-80
2024/01/11 14:40:35;;;;;;;0.52;0.50;;;;;;;;;;5039018;28;20068;-77
2024/01/11 14:43:05;;;;;;;1.17;0.60;;;;;;;;;;5038946;28;20760;-77
2024/01/11 14:45:41;;;;;;;0.32;0.32;;;;;;;;;;5039097;28;20392;-75
2024/01/11 14:48:12;;;;;;;0.45;0.40;;;;;;;;;;5054325;28;20056;-77
2024/01/11 14:50:43;;;;;;;4.18;0.55;;;;;;;;;;5039064;28;20053;-75
2024/01/11 14:53:14;;;;;;;1.10;0.65;;;;;;;;;;5038712;28;20485;-75
2024/01/11 14:55:45;;;;;;;0.88;0.40;;;;;;;;;;5039411;28;20049;-78
2024/01/11 14:58:18;;;;;;;0.32;0.32;;;;;;;;;;5041377;28;20056;-76
2024/01/11 15:00:50;;;;;;;0.52;0.43;;;;;;;;;;5057925;28;20041;-75
2024/01/11 15:03:20;;;;;;;2.25;0.70;;;;;;;;;;5058952;28;20681;-75
2024/01/11 15:05:52;;;;;;;0.60;0.30;;;;;;;;;;5058441;28;20045;-77